Time;durP1;ratioP1;P1;durP2;ratioP2;P2;SDS_P1;SDS_P2;PMS_P1;PMS_P2;Temp;Humidity;BMP_temperature;BMP_pressure;BME280_temperature;BME280_humidity;BME280_pressure;Samples;Min_cycle;Max_cycle;Signal;HPM_P1;HPM_P2
2022/03/23 00:01:37;;;;;;;;;;;;;;;6.12;36.88;93964.69;2051760;70;20051;-75
2022/03/23 00:04:02;;;;;;;;;;;;;;;6.17;36.88;93969.34;2052057;69;20093;-75
2022/03/23 00:06:28;;;;;;;;;;;;;;;5.99;36.43;93962.00;2051690;70;20232;-74
2022/03/23 00:08:54;;;;;;;;;;;;;;;5.96;36.71;93963.84;2051560;70;20054;-74
2022/03/23 00:11:22;;;;;;;;;;;;;;;5.76;38.06;93962.56;2052268;70;20141;-76
2022/03/23 00:13:49;;;;;;;;;;;;;;;6.00;37.75;93966.28;2051928;69;20055;-74
2022/03/23 00:16:15;;;;;;;;;;;;;;;5.95;36.90;93967.19;2052269;70;20057;-75
2022/03/23 00:18:40;;;;;;;;;;;;;;;5.90;37.02;93959.69;2051623;70;20075;-75
2022/03/23 00:21:05;;;;;;;;;;;;;;;6.08;36.79;93961.47;2052059;70;20068;-75
2022/03/23 00:23:31;;;;;;;;;;;;;;;6.07;37.07;93960.00;2052146;70;20051;-75
2022/03/23 00:25:59;;;;;;;;;;;;;;;5.83;37.36;93959.09;2051506;70;20047;-75
2022/03/23 00:28:27;;;;;;;;;;;;;;;5.92;36.92;93960.66;2051960;70;20437;-76
2022/03/23 00:30:53;;;;;;;;;;;;;;;5.89;36.61;93963.78;2051421;70;20055;-76
2022/03/23 00:33:21;;;;;;;;;;;;;;;6.10;35.88;93962.44;2052194;70;20390;-76
2022/03/23 00:35:48;;;;;;;;;;;;;;;5.86;36.21;93962.81;2052013;70;20513;-76
2022/03/23 00:38:18;;;;;;;;;;;;;;;5.80;36.75;93962.22;2052024;70;20051;-75
2022/03/23 00:40:44;;;;;;;;;;;;;;;5.72;36.65;93967.75;2051518;70;20062;-74
2022/03/23 00:43:10;;;;;;;;;;;;;;;5.84;36.64;93965.44;2048759;70;20078;-75
2022/03/23 00:45:37;;;;;;;;;;;;;;;5.86;36.07;93966.38;2051345;70;20502;-74
2022/03/23 00:48:03;;;;;;;;;;;;;;;5.82;37.17;93971.56;2051730;70;20047;-75
2022/03/23 00:50:29;;;;;;;;;;;;;;;5.61;37.54;93966.03;2048791;70;20096;-75
2022/03/23 00:52:54;;;;;;;;;;;;;;;5.70;35.91;93969.63;2051412;70;20109;-75
2022/03/23 00:55:19;;;;;;;;;;;;;;;5.79;36.88;93966.31;2052165;70;20102;-75
2022/03/23 00:57:45;;;;;;;;;;;;;;;5.45;37.58;93958.06;2051440;70;20247;-75
2022/03/23 01:00:17;;;;;;;;;;;;;;;5.67;36.22;93965.88;2051384;70;20063;-75
2022/03/23 01:02:44;;;;;;;;;;;;;;;5.81;35.89;93969.31;2051479;70;20054;-75
2022/03/23 01:05:11;;;;;;;;;;;;;;;5.50;37.79;93974.72;2052050;70;20537;-76
2022/03/23 01:07:38;;;;;;;;;;;;;;;5.16;38.67;93966.41;2051994;70;20055;-75
2022/03/23 01:10:04;;;;;;;;;;;;;;;5.47;37.15;93970.19;2051531;70;20428;-76
2022/03/23 01:12:29;;;;;;;;;;;;;;;5.41;37.61;93966.81;2052277;69;20050;-75
2022/03/23 01:14:55;;;;;;;;;;;;;;;5.44;37.10;93962.91;2052095;70;20050;-75
2022/03/23 01:17:21;;;;;;;;;;;;;;;5.58;35.16;93966.38;2052333;69;20074;-75
2022/03/23 01:19:48;;;;;;;;;;;;;;;5.46;36.32;93965.19;2049004;70;20089;-75
2022/03/23 01:22:14;;;;;;;;;;;;;;;5.79;34.57;93967.06;2052335;70;20437;-76
2022/03/23 01:24:40;;;;;;;;;;;;;;;5.35;36.17;93969.72;2051754;70;20077;-74
2022/03/23 01:27:06;;;;;;;;;;;;;;;5.41;36.11;93966.06;2052169;70;20074;-75
2022/03/23 01:29:31;;;;;;;;;;;;;;;5.56;36.00;93961.34;2052263;70;20450;-75
2022/03/23 01:31:57;;;;;;;;;;;;;;;5.62;35.47;93963.97;2052406;70;20421;-75
2022/03/23 01:34:22;;;;;;;;;;;;;;;5.72;34.63;93959.38;2051412;70;20093;-76
2022/03/23 01:36:48;;;;;;;;;;;;;;;5.38;36.12;93967.91;2052183;69;20200;-75
2022/03/23 01:39:14;;;;;;;;;;;;;;;5.08;37.23;93960.00;2052051;70;20122;-75
2022/03/23 01:41:41;;;;;;;;;;;;;;;5.26;36.59;93961.84;2051029;70;20492;-77
2022/03/23 01:44:13;;;;;;;;;;;;;;;5.14;37.64;93954.31;2051073;70;20489;-76
2022/03/23 01:46:57;;;;;;;;;;;;;;;5.00;37.46;93959.97;2051670;69;20089;-76
2022/03/23 01:49:22;;;;;;;;;;;;;;;5.03;37.77;93958.09;2051664;69;20054;-77
2022/03/23 01:51:49;;;;;;;;;;;;;;;5.05;37.96;93964.66;2051634;70;20047;-76
2022/03/23 01:54:14;;;;;;;;;;;;;;;5.51;34.91;93959.44;2051616;69;20062;-76
2022/03/23 01:56:41;;;;;;;;;;;;;;;5.31;36.27;93958.19;2051146;70;20086;-76
2022/03/23 01:59:07;;;;;;;;;;;;;;;5.13;37.33;93958.38;2050989;70;20114;-75
2022/03/23 02:01:34;;;;;;;;;;;;;;;4.73;38.10;93958.56;2051001;70;20486;-75
2022/03/23 02:04:00;;;;;;;;;;;;;;;5.27;35.58;93962.59;2051677;70;20101;-76
2022/03/23 02:06:25;;;;;;;;;;;;;;;4.87;37.39;93968.38;2050986;70;20116;-75
2022/03/23 02:08:51;;;;;;;;;;;;;;;4.81;37.25;93971.31;2050978;70;20062;-74
2022/03/23 02:11:17;;;;;;;;;;;;;;;4.70;37.52;93973.59;2051659;70;20475;-75
2022/03/23 02:13:43;;;;;;;;;;;;;;;4.83;37.66;93965.94;2055484;70;20057;-75
2022/03/23 02:16:09;;;;;;;;;;;;;;;5.20;35.69;93966.06;2068502;69;20496;-76
2022/03/23 02:18:35;;;;;;;;;;;;;;;4.80;37.21;93969.03;2068600;69;20085;-76
2022/03/23 02:21:01;;;;;;;;;;;;;;;4.63;37.79;93974.25;2068425;69;20170;-75
2022/03/23 02:23:27;;;;;;;;;;;;;;;4.55;38.65;93974.94;2068513;69;20054;-76
2022/03/23 02:25:58;;;;;;;;;;;;;;;4.74;37.06;93966.38;2055452;70;20050;-76
2022/03/23 02:28:24;;;;;;;;;;;;;;;4.85;36.12;93963.31;2055624;69;20499;-76
2022/03/23 02:30:50;;;;;;;;;;;;;;;4.88;36.64;93964.28;2055270;70;20047;-75
2022/03/23 02:33:19;;;;;;;;;;;;;;;4.57;38.75;93961.19;2055480;70;20134;-75
2022/03/23 02:35:44;;;;;;;;;;;;;;;4.38;38.53;93966.19;2068555;69;20421;-75
2022/03/23 02:38:10;;;;;;;;;;;;;;;4.70;38.09;93956.84;2055952;69;20078;-76
2022/03/23 02:40:35;;;;;;;;;;;;;;;4.45;38.69;93959.22;2068986;69;20073;-75
2022/03/23 02:43:01;;;;;;;;;;;;;;;4.43;38.73;93956.19;2055882;70;20417;-76
2022/03/23 02:45:26;;;;;;;;;;;;;;;4.18;39.60;93948.13;2055811;70;20119;-75
2022/03/23 02:47:52;;;;;;;;;;;;;;;4.26;39.02;93954.53;2055869;70;20585;-76
2022/03/23 02:50:18;;;;;;;;;;;;;;;4.14;39.63;93953.25;2056008;70;20586;-76
2022/03/23 03:03:58;;;;;;;;;;;;;;;4.33;37.80;93956.66;2056036;70;20505;-75
2022/03/23 03:06:23;;;;;;;;;;;;;;;5.02;36.49;93953.81;2055909;70;20062;-76
2022/03/23 03:08:49;;;;;;;;;;;;;;;4.26;39.50;93960.13;2055868;70;20135;-76
2022/03/23 03:11:18;;;;;;;;;;;;;;;4.13;39.46;93957.34;2066076;69;20058;-76
2022/03/23 03:13:48;;;;;;;;;;;;;;;4.10;39.17;93958.41;2055755;70;20078;-76
2022/03/23 03:16:13;;;;;;;;;;;;;;;4.08;39.43;93953.38;2055938;70;20143;-76
2022/03/23 03:18:39;;;;;;;;;;;;;;;3.91;39.86;93957.81;2068816;69;20437;-75
2022/03/23 03:21:08;;;;;;;;;;;;;;;3.99;40.00;93959.41;2055919;70;20057;-75
2022/03/23 03:23:34;;;;;;;;;;;;;;;4.07;39.44;93960.22;2055806;70;20058;-75
2022/03/23 03:26:05;;;;;;;;;;;;;;;4.09;38.77;93970.84;2055954;70;20053;-77
2022/03/23 03:28:31;;;;;;;;;;;;;;;3.70;40.51;93961.22;2068798;69;20261;-76
2022/03/23 03:30:57;;;;;;;;;;;;;;;3.93;39.50;93963.56;2055711;69;20058;-76
2022/03/23 03:33:22;;;;;;;;;;;;;;;3.95;39.27;93970.13;2055749;70;20050;-76
2022/03/23 03:35:48;;;;;;;;;;;;;;;3.95;39.61;93963.81;2055771;70;20057;-75
2022/03/23 03:38:13;;;;;;;;;;;;;;;3.79;40.73;93966.38;2055921;70;20051;-74
2022/03/23 03:40:39;;;;;;;;;;;;;;;3.86;40.30;93967.78;2055755;70;20050;-74
2022/03/23 03:43:04;;;;;;;;;;;;;;;3.70;39.93;93966.03;2055738;70;20050;-76
2022/03/23 03:45:29;;;;;;;;;;;;;;;4.03;38.06;93956.25;2055657;70;20141;-76
2022/03/23 03:47:55;;;;;;;;;;;;;;;3.86;40.57;93961.44;2055556;70;20042;-76
2022/03/23 03:50:20;;;;;;;;;;;;;;;3.50;41.66;93961.88;2055783;70;20097;-76
2022/03/23 03:52:46;;;;;;;;;;;;;;;3.62;41.84;93962.41;2055733;70;20138;-76
2022/03/23 03:55:12;;;;;;;;;;;;;;;3.49;40.88;93957.59;2055839;70;20046;-76
2022/03/23 03:57:38;;;;;;;;;;;;;;;3.64;40.78;93954.28;2055753;70;20062;-76
2022/03/23 04:00:04;;;;;;;;;;;;;;;3.66;40.73;93960.03;2055614;69;20054;-76
2022/03/23 04:02:38;;;;;;;;;;;;;;;3.68;40.36;93955.44;2067923;69;20054;-76
2022/03/23 04:05:04;;;;;;;;;;;;;;;3.67;40.48;93956.75;2055735;70;20421;-76
2022/03/23 04:07:32;;;;;;;;;;;;;;;3.48;40.57;93953.28;2055703;70;20495;-75
2022/03/23 04:09:57;;;;;;;;;;;;;;;3.63;40.61;93955.56;2055848;70;20082;-74
2022/03/23 04:12:23;;;;;;;;;;;;;;;3.47;41.02;93955.31;2055813;70;20093;-76
2022/03/23 04:14:49;;;;;;;;;;;;;;;3.42;41.02;93955.44;2055585;69;20051;-76
2022/03/23 04:17:14;;;;;;;;;;;;;;;3.34;41.35;93966.44;2055730;70;20454;-77
2022/03/23 04:19:40;;;;;;;;;;;;;;;3.45;40.81;93960.69;2055729;69;20161;-75
2022/03/23 04:22:05;;;;;;;;;;;;;;;3.59;39.60;93960.69;2055793;70;20096;-76
2022/03/23 04:24:32;;;;;;;;;;;;;;;3.75;39.55;93962.41;2055754;70;20490;-76
2022/03/23 04:26:58;;;;;;;;;;;;;;;3.61;39.58;93964.44;2055750;69;20150;-76
2022/03/23 04:29:24;;;;;;;;;;;;;;;3.61;38.45;93961.66;2055660;70;20146;-75
2022/03/23 04:31:50;;;;;;;;;;;;;;;3.68;39.51;93968.63;2055793;69;20165;-77
2022/03/23 04:34:15;;;;;;;;;;;;;;;3.61;38.78;93969.25;2055869;70;20174;-75
2022/03/23 04:36:41;;;;;;;;;;;;;;;3.47;40.33;93971.28;2055674;70;20066;-77
2022/03/23 04:39:06;;;;;;;;;;;;;;;3.52;40.03;93968.38;2055696;70;20082;-77
2022/03/23 04:41:32;;;;;;;;;;;;;;;3.75;37.85;93973.53;2068726;69;20049;-75
2022/03/23 04:43:57;;;;;;;;;;;;;;;3.42;40.38;93975.66;2055700;70;20066;-74
2022/03/23 04:46:23;;;;;;;;;;;;;;;3.30;40.50;93980.69;2055699;70;20050;-76
2022/03/23 04:48:48;;;;;;;;;;;;;;;3.34;41.04;93982.41;2055790;70;20055;-78
2022/03/23 04:51:14;;;;;;;;;;;;;;;3.39;40.89;93979.53;2055670;70;20137;-76
2022/03/23 04:53:39;;;;;;;;;;;;;;;3.30;40.61;93980.69;2055781;69;20176;-76
2022/03/23 04:56:04;;;;;;;;;;;;;;;3.18;41.12;93986.97;2068656;69;20441;-72
2022/03/23 04:58:30;;;;;;;;;;;;;;;3.37;39.38;93986.91;2055696;69;20510;-75
2022/03/23 05:00:55;;;;;;;;;;;;;;;3.21;41.40;93985.94;2055574;70;20120;-75
2022/03/23 05:03:22;;;;;;;;;;;;;;;3.22;41.51;93985.38;2055814;70;20077;-74
2022/03/23 05:05:48;;;;;;;;;;;;;;;3.20;41.33;93981.63;2055615;70;20089;-76
2022/03/23 05:08:13;;;;;;;;;;;;;;;3.18;42.06;93993.28;2055635;69;20054;-75
2022/03/23 05:10:39;;;;;;;;;;;;;;;2.98;42.16;93997.41;2068637;69;20095;-76
2022/03/23 05:13:04;;;;;;;;;;;;;;;2.99;42.25;93989.81;2055619;70;20054;-76
2022/03/23 05:15:30;;;;;;;;;;;;;;;3.14;41.48;93994.88;2055557;70;20124;-75
2022/03/23 05:17:56;;;;;;;;;;;;;;;3.18;41.30;94001.66;2055650;70;20057;-77
2022/03/23 05:20:23;;;;;;;;;;;;;;;3.21;41.13;93991.50;2055609;70;20135;-77
2022/03/23 05:22:48;;;;;;;;;;;;;;;3.05;41.72;93994.00;2055727;70;20057;-76
2022/03/23 05:25:14;;;;;;;;;;;;;;;3.12;40.96;93997.47;2068623;69;20046;-75
2022/03/23 05:27:41;;;;;;;;;;;;;;;3.16;41.24;93998.66;2055626;70;20050;-76
2022/03/23 05:30:07;;;;;;;;;;;;;;;3.03;42.04;93998.63;2055303;70;20489;-77
2022/03/23 05:32:34;;;;;;;;;;;;;;;3.03;42.35;94006.97;2055586;70;20056;-77
2022/03/23 05:34:59;;;;;;;;;;;;;;;3.06;41.83;94000.31;2055701;70;20054;-77
2022/03/23 05:37:24;;;;;;;;;;;;;;;3.04;41.77;93998.06;2068642;69;20053;-77
2022/03/23 05:39:50;;;;;;;;;;;;;;;2.97;42.19;94009.06;2055604;70;20220;-76
2022/03/23 05:42:16;;;;;;;;;;;;;;;3.01;41.69;94010.25;2068587;69;20153;-77
2022/03/23 05:44:41;;;;;;;;;;;;;;;3.10;41.85;94003.53;2055643;70;20042;-77
2022/03/23 05:47:08;;;;;;;;;;;;;;;3.10;41.45;94005.56;2055506;69;20050;-77
2022/03/23 05:49:33;;;;;;;;;;;;;;;3.00;42.75;94005.97;2055733;70;20053;-77
2022/03/23 05:51:58;;;;;;;;;;;;;;;3.00;42.06;94000.41;2068626;69;20528;-76
2022/03/23 05:54:24;;;;;;;;;;;;;;;3.15;41.82;94011.03;2068576;69;20116;-76
2022/03/23 05:56:50;;;;;;;;;;;;;;;3.18;41.69;94003.69;2055563;70;20060;-76
2022/03/23 05:59:16;;;;;;;;;;;;;;;3.16;42.26;94006.22;2055375;69;20054;-76
2022/03/23 06:01:41;;;;;;;;;;;;;;;3.09;41.35;94007.63;2065758;69;20050;-77
2022/03/23 06:04:08;;;;;;;;;;;;;;;3.18;41.60;94012.03;2055555;70;20058;-77
2022/03/23 06:06:33;;;;;;;;;;;;;;;3.00;43.38;94008.00;2055524;70;20054;-76
2022/03/23 06:08:59;;;;;;;;;;;;;;;3.01;42.81;94010.25;2055495;69;20050;-75
2022/03/23 06:11:24;;;;;;;;;;;;;;;3.33;39.97;94020.63;2055719;70;20050;-76
2022/03/23 06:13:50;;;;;;;;;;;;;;;2.98;43.51;94014.13;2056108;70;20055;-76
2022/03/23 06:16:16;;;;;;;;;;;;;;;3.10;41.36;94013.94;2055967;70;20058;-76
2022/03/23 06:18:41;;;;;;;;;;;;;;;2.91;43.24;94011.94;2069050;69;20094;-75
2022/03/23 06:21:07;;;;;;;;;;;;;;;2.97;43.12;94018.16;2068970;69;20043;-76
2022/03/23 06:23:33;;;;;;;;;;;;;;;2.99;42.48;94015.63;2055973;70;20405;-74
2022/03/23 06:25:59;;;;;;;;;;;;;;;2.90;43.38;94021.56;2069038;69;20082;-74
2022/03/23 06:28:25;;;;;;;;;;;;;;;2.99;42.65;94020.44;2068995;69;20093;-75
2022/03/23 06:30:53;;;;;;;;;;;;;;;3.10;42.91;94025.06;2055820;70;20483;-75
2022/03/23 06:33:19;;;;;;;;;;;;;;;3.34;41.72;94026.94;2055944;69;20487;-74
2022/03/23 06:35:45;;;;;;;;;;;;;;;3.42;40.38;94017.44;2055885;69;20062;-75
2022/03/23 06:38:11;;;;;;;;;;;;;;;3.22;42.60;94026.38;2068938;69;20506;-75
2022/03/23 06:40:37;;;;;;;;;;;;;;;3.19;43.09;94027.44;2055943;70;20060;-75
2022/03/23 06:43:02;;;;;;;;;;;;;;;3.28;42.16;94021.47;2056079;70;20086;-74
2022/03/23 06:45:28;;;;;;;;;;;;;;;3.16;42.16;94023.69;2055814;70;20046;-76
2022/03/23 06:47:53;;;;;;;;;;;;;;;3.53;38.49;94022.81;2068974;69;20050;-76
2022/03/23 06:50:19;;;;;;;;;;;;;;;3.35;43.27;94023.63;2068971;69;20050;-79
2022/03/23 06:52:44;;;;;;;;;;;;;;;3.36;42.83;94022.34;2055966;69;20081;-80
2022/03/23 06:55:10;;;;;;;;;;;;;;;3.42;42.29;94027.81;2055973;70;20418;-77
2022/03/23 06:57:37;;;;;;;;;;;;;;;3.44;42.16;94028.06;2068947;69;20090;-78
2022/03/23 07:00:12;;;;;;;;;;;;;;;3.38;42.91;94024.59;2056358;69;20516;-74
2022/03/23 07:02:41;;;;;;;;;;;;;;;3.37;43.13;94031.44;2055916;70;20486;-76
2022/03/23 07:05:06;;;;;;;;;;;;;;;3.22;43.65;94021.56;2055889;70;20060;-79
2022/03/23 07:07:32;;;;;;;;;;;;;;;3.56;39.12;94021.00;2055979;69;20058;-77
2022/03/23 07:09:57;;;;;;;;;;;;;;;3.54;40.64;94020.78;2055828;69;20053;-76
2022/03/23 07:12:23;;;;;;;;;;;;;;;3.41;43.37;94023.53;2055767;70;20054;-76
2022/03/23 07:14:48;;;;;;;;;;;;;;;3.63;39.66;94014.78;2065902;69;20046;-76
2022/03/23 07:17:14;;;;;;;;;;;;;;;3.67;41.60;94018.00;2055819;70;20061;-75
2022/03/23 07:19:40;;;;;;;;;;;;;;;3.49;42.63;94019.59;2055942;69;20058;-76
2022/03/23 07:22:05;;;;;;;;;;;;;;;3.48;43.28;94014.53;2055915;70;20430;-75
2022/03/23 07:24:31;;;;;;;;;;;;;;;3.52;42.15;94012.19;2055992;70;20070;-76
2022/03/23 07:26:56;;;;;;;;;;;;;;;3.50;43.65;94015.53;2055849;70;20116;-75
2022/03/23 07:29:21;;;;;;;;;;;;;;;3.54;43.35;94018.75;2068752;69;20058;-75
2022/03/23 07:31:47;;;;;;;;;;;;;;;3.61;43.85;94013.81;2055840;70;20115;-75
2022/03/23 07:34:18;;;;;;;;;;;;;;;4.20;42.86;94011.69;2055967;69;20049;-75
2022/03/23 07:36:44;;;;;;;;;;;;;;;4.60;40.19;94012.38;2055918;70;20081;-74
2022/03/23 07:39:09;;;;;;;;;;;;;;;5.22;41.48;94008.91;2055813;70;20475;-74
2022/03/23 07:41:35;;;;;;;;;;;;;;;5.89;38.41;94006.44;2068836;69;20125;-75
2022/03/23 07:44:00;;;;;;;;;;;;;;;6.34;37.04;94008.78;2055798;70;20054;-75
2022/03/23 07:46:26;;;;;;;;;;;;;;;6.83;36.46;93999.47;2055879;70;20096;-75
2022/03/23 07:48:51;;;;;;;;;;;;;;;7.70;35.49;94005.34;2055799;70;20136;-76
2022/03/23 07:51:17;;;;;;;;;;;;;;;8.88;35.85;93999.13;2068902;69;20116;-75
2022/03/23 07:53:42;;;;;;;;;;;;;;;7.86;36.46;94004.06;2055755;69;20050;-76
2022/03/23 07:56:07;;;;;;;;;;;;;;;8.04;35.45;93999.38;2068943;69;20477;-77
2022/03/23 07:58:33;;;;;;;;;;;;;;;8.43;35.16;93998.00;2055705;69;20053;-76
2022/03/23 08:00:58;;;;;;;;;;;;;;;8.32;35.58;93993.50;2068627;69;20057;-74
2022/03/23 08:03:24;;;;;;;;;;;;;;;9.32;32.33;93990.25;2055798;69;20490;-75
2022/03/23 08:05:49;;;;;;;;;;;;;;;8.82;32.06;93993.72;2068873;69;20055;-76
2022/03/23 08:08:15;;;;;;;;;;;;;;;11.95;29.68;94003.81;2055818;70;20046;-76
2022/03/23 08:10:42;;;;;;;;;;;;;;;10.73;30.30;93996.34;2055741;70;20068;-75
2022/03/23 08:13:09;;;;;;;;;;;;;;;11.11;29.39;93998.66;2055698;70;20123;-75
2022/03/23 08:15:37;;;;;;;;;;;;;;;11.33;29.96;94000.44;2055577;70;20043;-75
2022/03/23 08:18:03;;;;;;;;;;;;;;;11.44;27.36;93994.25;2055801;70;20149;-76
2022/03/23 08:20:38;;;;;;;;;;;;;;;11.43;28.89;93994.84;2055735;70;20157;-76
2022/03/23 08:23:08;;;;;;;;;;;;;;;11.69;29.48;93990.50;2055683;70;20054;-75
2022/03/23 08:25:37;;;;;;;;;;;;;;;12.48;28.28;93992.94;2055697;70;20486;-76
2022/03/23 08:28:05;;;;;;;;;;;;;;;12.11;28.16;93987.41;2068703;69;20054;-76
2022/03/23 08:30:31;;;;;;;;;;;;;;;12.89;27.22;93988.19;2055587;70;20058;-76
2022/03/23 08:32:56;;;;;;;;;;;;;;;13.05;27.52;93988.63;2055588;69;20478;-80
2022/03/23 08:35:23;;;;;;;;;;;;;;;13.14;28.34;93985.03;2055577;70;20494;-76
2022/03/23 08:37:49;;;;;;;;;;;;;;;13.11;26.99;93980.59;2055709;70;20057;-77
2022/03/23 08:40:15;;;;;;;;;;;;;;;13.20;26.43;93976.25;2068899;69;20047;-76
2022/03/23 08:42:40;;;;;;;;;;;;;;;13.77;23.60;93976.69;2068681;69;20192;-76
2022/03/23 08:45:06;;;;;;;;;;;;;;;14.96;24.27;93977.59;2055535;70;20058;-77
2022/03/23 08:47:32;;;;;;;;;;;;;;;15.59;21.71;93970.25;2055707;70;20170;-77
2022/03/23 08:50:00;;;;;;;;;;;;;;;14.67;20.91;93969.34;2068710;69;20058;-75
2022/03/23 08:52:28;;;;;;;;;;;;;;;15.46;23.74;93965.91;2068594;69;20062;-77
2022/03/23 08:54:53;;;;;;;;;;;;;;;15.74;22.05;93958.44;2055758;70;20047;-78
2022/03/23 08:57:19;;;;;;;;;;;;;;;16.91;19.53;93956.84;2055649;70;20046;-76
2022/03/23 08:59:44;;;;;;;;;;;;;;;16.55;20.73;93955.44;2055659;70;20049;-75
2022/03/23 09:02:09;;;;;;;;;;;;;;;16.79;21.17;93953.28;2068689;69;20046;-78
2022/03/23 09:04:35;;;;;;;;;;;;;;;17.57;20.36;93955.53;2055719;70;20053;-77
2022/03/23 09:07:00;;;;;;;;;;;;;;;17.26;20.43;93950.97;2055456;70;20134;-75
2022/03/23 09:09:26;;;;;;;;;;;;;;;17.68;20.08;93946.88;2055424;70;20150;-76
2022/03/23 09:11:52;;;;;;;;;;;;;;;18.58;18.95;93943.06;2055490;69;20463;-75
2022/03/23 09:14:17;;;;;;;;;;;;;;;18.03;19.58;93943.06;2055462;70;20434;-76
2022/03/23 09:16:43;;;;;;;;;;;;;;;17.58;18.55;93940.66;2065694;69;20058;-76
2022/03/23 09:19:09;;;;;;;;;;;;;;;18.21;18.82;93934.75;2055587;70;20056;-76
2022/03/23 09:21:34;;;;;;;;;;;;;;;18.14;19.50;93930.09;2055609;70;20059;-75
2022/03/23 09:24:00;;;;;;;;;;;;;;;18.47;18.17;93938.22;2055603;69;20050;-76
2022/03/23 09:26:25;;;;;;;;;;;;;;;18.33;17.88;93928.97;2055594;70;20042;-76
2022/03/23 09:28:51;;;;;;;;;;;;;;;18.07;18.03;93934.00;2055613;70;20618;-76
2022/03/23 09:31:17;;;;;;;;;;;;;;;18.77;17.13;93928.38;2055586;70;20571;-76
2022/03/23 09:33:43;;;;;;;;;;;;;;;19.08;19.09;93929.88;2055662;70;20534;-76
2022/03/23 09:37:47;;;;;;;;;;;;;;;20.16;18.08;93920.66;2068681;69;20108;-75
2022/03/23 09:38:54;;;;;;;;;;;;;;;20.40;15.99;93918.13;2055683;69;20062;-75
2022/03/23 09:41:19;;;;;;;;;;;;;;;20.79;16.30;93911.94;2068607;69;20050;-75
2022/03/23 09:43:46;;;;;;;;;;;;;;;20.36;15.73;93911.47;2055445;70;20050;-75
2022/03/23 09:46:12;;;;;;;;;;;;;;;20.15;15.72;93909.84;2055561;70;20165;-75
2022/03/23 09:48:38;;;;;;;;;;;;;;;19.90;15.23;93905.91;2068701;69;20151;-75
2022/03/23 09:51:03;;;;;;;;;;;;;;;21.28;15.60;93904.63;2068682;69;20092;-75
2022/03/23 09:53:29;;;;;;;;;;;;;;;19.97;14.94;93893.34;2055667;70;20564;-75
2022/03/23 09:55:54;;;;;;;;;;;;;;;19.36;15.08;93887.69;2055508;69;20042;-75
2022/03/23 09:58:20;;;;;;;;;;;;;;;20.37;15.63;93890.81;2068687;69;20050;-75
2022/03/23 10:00:46;;;;;;;;;;;;;;;20.16;16.91;93889.19;2068495;69;20061;-75
2022/03/23 10:03:11;;;;;;;;;;;;;;;22.07;15.05;93886.88;2055519;70;20066;-74
2022/03/23 10:05:55;;;;;;;;;;;;;;;22.18;15.72;93883.03;2055499;70;20046;-73
2022/03/23 10:08:24;;;;;;;;;;;;;;;20.79;15.63;93874.00;2055581;69;20486;-74
2022/03/23 10:10:52;;;;;;;;;;;;;;;20.30;15.51;93869.81;2055542;70;20042;-74
2022/03/23 10:13:56;;;;;;;;;;;;;;;21.99;16.36;93875.09;2055436;70;20050;-74
2022/03/23 10:16:40;;;;;;;;;;;;;;;23.02;13.71;93871.56;2055483;70;20066;-74
2022/03/23 10:19:06;;;;;;;;;;;;;;;23.21;14.21;93867.16;2068517;69;20051;-74
2022/03/23 10:21:36;;;;;;;;;;;;;;;22.65;13.41;93867.44;2055463;69;20072;-74
2022/03/23 10:24:02;;;;;;;;;;;;;;;21.64;14.07;93862.38;2068474;69;20073;-74
2022/03/23 10:26:28;;;;;;;;;;;;;;;21.97;13.98;93854.97;2068526;69;20062;-74
2022/03/23 10:28:54;;;;;;;;;;;;;;;21.03;13.44;93842.78;2055310;70;20050;-73
2022/03/23 10:31:21;;;;;;;;;;;;;;;21.89;13.54;93851.81;2065623;69;20054;-74
2022/03/23 10:34:15;;;;;;;;;;;;;;;23.11;13.93;93850.34;2068468;69;20054;-74
2022/03/23 10:36:44;;;;;;;;;;;;;;;22.52;13.24;93845.47;2038670;70;20052;-74
2022/03/23 10:39:12;;;;;;;;;;;;;;;23.61;13.63;93843.97;2041489;70;20059;-74
2022/03/23 10:41:38;;;;;;;;;;;;;;;22.38;13.68;93842.84;2041529;70;20051;-74
2022/03/23 10:44:15;;;;;;;;;;;;;;;23.54;14.08;93835.16;2041347;70;20048;-74
2022/03/23 10:46:41;;;;;;;;;;;;;;;24.42;13.06;93829.09;2041453;70;20143;-75
2022/03/23 10:49:07;;;;;;;;;;;;;;;25.24;12.07;93837.66;2041462;70;20158;-75
2022/03/23 10:51:33;;;;;;;;;;;;;;;26.04;12.70;93825.78;2041530;70;20183;-75
2022/03/23 10:54:12;;;;;;;;;;;;;;;26.05;11.48;93818.56;2041504;70;20055;-75
2022/03/23 10:56:38;;;;;;;;;;;;;;;25.21;12.76;93815.25;2041520;70;20066;-75
2022/03/23 10:59:15;;;;;;;;;;;;;;;25.25;12.96;93809.59;2041779;70;20044;-76
2022/03/23 11:01:59;;;;;;;;;;;;;;;26.46;11.10;93813.63;2041927;70;20052;-76
2022/03/23 11:04:28;;;;;;;;;;;;;;;26.99;11.74;93810.97;2039203;70;20063;-76
2022/03/23 11:06:58;;;;;;;;;;;;;;;27.98;10.21;93800.16;2039325;70;20634;-76
2022/03/23 11:17:51;;;;;;;;;;;;;;;31.70;8.54;93800.19;2055818;70;20054;-77
2022/03/23 11:20:16;;;;;;;;;;;;;;;33.76;7.45;93802.06;2055843;69;20087;-76
2022/03/23 11:22:42;;;;;;;;;;;;;;;34.08;8.13;93801.03;2055835;70;20101;-76
2022/03/23 11:25:07;;;;;;;;;;;;;;;30.48;9.78;93789.19;2055939;70;20541;-76
2022/03/23 11:27:35;;;;;;;;;;;;;;;34.19;7.62;93792.88;2066088;69;20089;-78
2022/03/23 11:30:00;;;;;;;;;;;;;;;32.07;7.91;93785.59;2055736;70;20138;-76
2022/03/23 11:32:28;;;;;;;;;;;;;;;34.39;8.10;93783.16;2068995;69;20203;-76
2022/03/23 11:34:56;;;;;;;;;;;;;;;33.93;7.92;93776.34;2068708;69;20094;-78
2022/03/23 11:37:23;;;;;;;;;;;;;;;34.88;8.04;93770.81;2068778;69;20057;-78
2022/03/23 11:39:50;;;;;;;;;;;;;;;36.44;6.85;93771.88;2055786;69;20119;-77
2022/03/23 11:42:17;;;;;;;;;;;;;;;32.98;7.87;93757.47;2055974;69;20132;-77
2022/03/23 11:44:45;;;;;;;;;;;;;;;35.23;7.69;93762.25;2065926;69;20495;-78
2022/03/23 11:47:28;;;;;;;;;;;;;;;32.66;7.32;93759.13;2055842;69;20426;-76
2022/03/23 11:50:05;;;;;;;;;;;;;;;34.04;7.50;93748.50;2056011;70;20058;-76
2022/03/23 11:52:33;;;;;;;;;;;;;;;33.85;7.51;93747.22;2055770;70;20051;-79
2022/03/23 11:58:04;;;;;;;;;;;;;;;34.35;7.16;93731.31;2055722;70;20061;-76
2022/03/23 12:00:36;;;;;;;;;;;;;;;34.47;7.77;93726.81;2068394;69;20179;-76
2022/03/23 12:03:02;;;;;;;;;;;;;;;35.73;6.41;93730.69;2055824;70;20139;-76
2022/03/23 12:05:30;;;;;;;;;;;;;;;34.73;7.24;93725.69;2068681;69;20058;-76
2022/03/23 12:07:56;;;;;;;;;;;;;;;35.40;6.70;93722.44;2055580;70;20082;-78
2022/03/23 12:10:23;;;;;;;;;;;;;;;36.32;6.46;93726.59;2055699;69;20109;-76
2022/03/23 12:12:48;;;;;;;;;;;;;;;37.00;6.59;93731.03;2055666;70;20141;-75
2022/03/23 12:15:23;;;;;;;;;;;;;;;38.91;6.24;93725.19;2055633;70;20063;-77
2022/03/23 12:17:58;;;;;;;;;;;;;;;35.40;6.40;93707.09;2055344;70;20583;-74
2022/03/23 12:20:31;;;;;;;;;;;;;;;37.05;6.52;93711.84;2064748;69;20055;-76
2022/03/23 12:23:16;;;;;;;;;;;;;;;35.97;6.22;93706.09;2051870;70;20085;-76
2022/03/23 12:25:53;;;;;;;;;;;;;;;36.48;7.28;93698.47;2052093;69;20167;-76
2022/03/23 12:28:18;;;;;;;;;;;;;;;35.90;6.03;93698.88;2052278;69;20081;-75
2022/03/23 12:30:53;;;;;;;;;;;;;;;36.94;6.44;93696.72;2052040;70;20054;-78
2022/03/23 12:33:22;;;;;;;;;;;;;;;36.31;6.67;93686.34;2052190;70;20057;-79
2022/03/23 12:35:48;;;;;;;;;;;;;;;34.57;6.55;93668.91;2052047;70;20066;-79
2022/03/23 12:38:29;;;;;;;;;;;;;;;34.26;7.20;93676.66;2065137;69;20050;-79
2022/03/23 12:41:02;;;;;;;;;;;;;;;36.59;6.73;93674.00;2065030;69;20050;-80
2022/03/23 12:43:35;;;;;;;;;;;;;;;36.95;6.73;93674.66;2051984;70;20140;-80
2022/03/23 12:46:01;;;;;;;;;;;;;;;36.71;6.51;93678.16;2064608;69;20050;-78
2022/03/23 12:59:37;;;;;;;;;;;;;;;37.38;5.48;93659.66;2065146;69;20058;-78
2022/03/23 13:02:26;;;;;;;;;;;;;;;36.77;5.60;93654.53;2064860;69;20082;-78
2022/03/23 13:04:52;;;;;;;;;;;;;;;40.49;6.37;93659.38;2051870;69;20445;-80
2022/03/23 13:07:44;;;;;;;;;;;;;;;37.64;6.35;93648.69;2064747;69;20572;-77
2022/03/23 13:10:11;;;;;;;;;;;;;;;37.35;6.16;93640.63;2051588;69;20058;-78
2022/03/23 13:12:38;;;;;;;;;;;;;;;37.36;5.88;93632.53;2052051;69;20086;-79
2022/03/23 13:15:11;;;;;;;;;;;;;;;37.87;5.52;93634.13;2051780;70;20141;-80
2022/03/23 13:17:41;;;;;;;;;;;;;;;38.93;5.19;93633.88;2051713;69;20422;-77
2022/03/23 13:20:08;;;;;;;;;;;;;;;35.85;5.72;93627.94;2051472;69;20070;-77
2022/03/23 13:22:34;;;;;;;;;;;;;;;38.11;5.95;93630.47;2051547;70;20055;-77
2022/03/23 13:25:01;;;;;;;;;;;;;;;36.13;6.13;93620.03;2051843;70;20073;-77
2022/03/23 13:27:27;;;;;;;;;;;;;;;35.73;5.74;93622.31;2051863;70;20071;-77
2022/03/23 13:29:58;;;;;;;;;;;;;;;37.95;5.46;93619.22;2051427;70;20137;-74